Tiempo atmosférico en la estación meteorológica de Utiel, València/Valencia (761 m.)



Fecha
DESCASC
Temp. máxima en grados centígrados (hora)
DESCASC
Temp. mínima en grados centígrados (hora)
DESCASC
Temp. media en grados centígrados
DESCASC
Racha de viento máxima en m/sg (hora)
DESCASC
Velocidad máxima media en intervalos de 10 minutos(hora)
DESCASC
Precipitaciones diarias en mm
DESCASC
Precipitaciones de 00:00 a 06:00 en mm
DESCASC
Precipitaciones de 06:00 a 12:00 en mm
DESCASC
Precipitaciones de 12:00 a 18:00 en mm
DESCASC
Precipitaciones de 18:00 a 24:00 en mm
DESCASC
31-03-2020 12.2 (17:20) 2.6 (04:00) 7.4 8.89 (18:10) 6.67 (18:10) 17.4 7.6 6 3 0.8
29-03-2020 18.6 (18:10) 0.4 (00:00) 9.5 8.61 (19:30) 5.83 (18:30) 0 0 0 0 0
28-03-2020 12.4 (16:30) 0.3 (00:00) 6.3 7.22 (12:10) 3.89 (12:00) 0 0 0 0 0
27-03-2020 5.2 (16:20) 1.4 (00:00) 3.3 7.22 (17:50) 5 (17:50) 5.6 0 2.2 3.4 0
26-03-2020 13.3 (15:40) 2.9 (00:00) 8.1 12.5 (15:00) 8.89 (15:00) 0.2 0.2 0 0 0
25-03-2020 -- (--) -- (--) -- -- (--) -- (--) -- -- -- 3.4 1
24-03-2020 -- (--) -- (--) -- -- (--) -- (--) -- -- -- -- --
23-03-2020 -- (--) -- (--) -- -- (--) -- (--) -- -- -- -- --
22-03-2020 11.7 (15:30) 5.9 (02:30) 8.8 8.61 (16:20) 5.83 (11:50) 3.8 0.2 0 0.4 3.2
21-03-2020 10.2 (13:30) 6.3 (00:00) 8.3 6.94 (18:00) 5 (18:10) 6.8 0.2 0 0 6.6
20-03-2020 10.4 (13:00) 6.8 (00:00) 8.6 7.78 (15:50) 5.56 (15:50) 1 0 0 1 0
19-03-2020 11.5 (16:00) 3.3 (00:00) 7.4 7.78 (11:40) 5 (16:30) 0 0 0 0 0
18-03-2020 14.9 (14:20) 6.9 (00:00) 10.9 10.56 (02:30) 7.5 (10:50) 0 0 0 0 0
17-03-2020 11.8 (15:00) 4.9 (00:00) 8.4 12.5 (17:20) 7.22 (17:50) 12 2.8 7.8 1.2 0.2
16-03-2020 9.7 (01:10) 2.1 (00:00) 5.9 13.89 (09:30) 8.61 (09:30) 22.8 3.2 6.4 9.8 3.4
15-03-2020 19.7 (15:50) 4.9 (00:00) 12.3 11.67 (20:30) 6.94 (20:40) 0 0 0 0 0
14-03-2020 21.2 (16:40) 3.8 (00:00) 12.5 7.78 (17:50) 5.28 (18:20) 0 0 0 0 0
13-03-2020 17.4 (15:20) 6.5 (08:00) 11.9 9.17 (14:50) 6.67 (12:30) 0 0 0 0 0
12-03-2020 27.2 (16:00) 7.1 (00:00) 17.2 6.67 (13:30) 5 (18:50) 0 0 0 0 0
11-03-2020 27.1 (15:50) 4.4 (00:00) 15.8 8.06 (18:20) 6.11 (18:30) 0 0 0 0 0
10-03-2020 24.2 (17:00) 7.1 (00:00) 15.7 12.5 (03:20) 9.72 (03:20) 0 0 0 0 0
09-03-2020 20.6 (16:30) 4.7 (00:00) 12.7 10.83 (12:00) 7.22 (19:00) 0 0 0 0 0
08-03-2020 20.4 (16:10) 0.5 (00:00) 10.4 12.5 (18:40) 8.89 (18:40) 0 0 0 0 0
07-03-2020 16.6 (15:30) 2 (00:00) 9.3 17.78 (16:30) 12.5 (16:30) 0 0 0 0 0
06-03-2020 12.2 (14:30) 4.1 (00:00) 8.1 21.11 (15:40) 15.28 (15:40) 0 0 0 0 0
05-03-2020 15.3 (16:00) 7.9 (00:00) 11.6 20.83 (15:10) 14.72 (15:10) 0.4 0 0 0.4 0
04-03-2020 17.7 (17:10) 10 (23:59) 13.9 13.33 (11:40) 10 (11:40) 0 0 0 0 0
03-03-2020 11.9 (17:00) 3.8 (00:00) 7.8 16.67 (14:40) 11.67 (14:40) 0 0 0 0 0
02-03-2020 12.9 (10:50) 4.2 (00:00) 8.5 27.78 (11:40) 17.5 (11:40) 6.4 0.8 3.2 2.4 0

Gráficas

Temp. máximas Temp. mínimas Temp. medias Precipitaciones Rachas de viento máximas Velocidades máximas media en intervalos de 10 minutos

Datos horarios

Fecha y hora oficial Temperatura (ºC) Velocidad del viento (km/h) Dirección del viento Racha (km/h) Dirección de racha Precipitación (mm) Presión (hPa) Tendencia (hPa) Humedad (%)
2020-03-31 23:00:00 8.4 12 Este 27 Este 0 925 2.4 88
2020-03-31 22:00:00 8.7 14 Este 28 Este 0 924.1 1.9 86
2020-03-31 21:00:00 9.5 12 Este 26 Este 0.2 923.6 1.5 81
2020-03-31 20:00:00 9.9 16 Este 32 Este 0.2 922.6 0.7 80
2020-03-31 19:00:00 10.7 18 Este 32 Este 0.2 922.2 0.3 77
2020-03-31 18:00:00 11.5 18 Este 29 Este 0.4 922.1 0.1 72
2020-03-31 17:00:00 11.4 18 Este 27 Este 0.4 921.9 -0.2 77
2020-03-31 16:00:00 10.4 17 Este 27 Este 0.4 921.9 -0.4 80
2020-03-31 15:00:00 10.6 12 Este 25 Este 0.4 922 -0.4 80
2020-03-31 14:00:00 9.9 16 Este 24 Este 0.6 922.1 -0.4 85
2020-03-31 13:00:00 8.4 6 Este 15 Este 0.8 922.3 0.6 90
2020-03-31 12:00:00 6.1 6 Noroeste 11 Sudeste 0.8 922.4 0.9 93
2020-03-31 11:00:00 6.5 7 Sudeste 17 Sudeste 1.2 922.5 1.4 92
2020-03-31 10:00:00 5.6 3 Este 11 Este 1.2 921.7 0.6 93
2020-03-31 09:00:00 4.5 3 Norte 10 Este 1.2 921.5 0.1 94
2020-03-31 08:00:00 4.5 5 Este 17 Sudeste 0.8 921.1 -0.6 92
2020-03-31 07:00:00 3.5 6 Oeste 9 Norte 0.8 921.1 -1.7 94
2020-03-31 06:00:00 3.1 6 Oeste 10 Norte 1 921.4 -2.1 95
2020-03-31 05:00:00 2.6 8 Noroeste 10 Norte 1 921.7 -1.9 94
2020-03-31 04:00:00 2.6 8 Noroeste 12 Noroeste 1.4 922.8 -0.9 93
2020-03-31 03:00:00 3.3 4 Este 13 Este 1.6 923.5 -0.5 89
2020-03-31 02:00:00 3.8 4 Nordeste 11 Este 1.2 923.6 -0.7 92
2020-03-31 01:00:00 3.6 8 Nordeste 15 Nordeste 1.4 923.7 -0.7 90
2020-03-31 00:00:00 3.7 6 Nordeste 13 Este 1 924 -0.5 91
2020-03-30 23:00:00 3.9 11 Este 18 Este 1 924.3 -0.2 88
2020-03-30 22:00:00 3.9 10 Este 18 Este 1.2 924.4 0 86
2020-03-30 21:00:00 4.4 8 Este 14 Nordeste 1.6 924.5 0.5 86
2020-03-30 20:00:00 4.8 10 Nordeste 16 Este 1.8 924.5 0.4 86
2020-03-30 19:00:00 5.5 8 Este 17 Sudeste 1.6 924.4 0.1 84
2020-03-30 18:00:00 6.2 9 Sudeste 23 Este 1 924 -0.6 84
2020-03-30 17:00:00 6.7 14 Este 20 Este 1.4 924.1 -1.1 86
2020-03-30 16:00:00 7.3 15 Sudeste 27 Sudeste 0.2 924.3 -1.2 86
2020-03-30 15:00:00 8.5 15 Sudeste 26 Sudeste 0 924.6 -1.1 81
2020-03-30 14:00:00 8.6 12 Sudeste 19 Sudeste 0 925.2 -0.7 78
2020-03-30 13:00:00 8.8 12 Sudeste 23 Sudeste 0 925.5 0.1 78
2020-03-30 12:00:00 8.9 12 Sudeste 21 Sudeste 0 925.7 0.6 81
2020-03-30 11:00:00 8.3 7 Sudeste 12 Sudeste 0 925.9 1.2 80
2020-03-30 10:00:00 7.6 3 Noroeste 7 Noroeste 0 925.4 0.8 73
2020-03-30 09:00:00 6.2 2 Sur 6 Norte 0 925.1 0.2 80
2020-03-30 08:00:00 6 4 Norte 13 Noroeste 0 924.7 -0.4 78
2020-03-30 07:00:00 6.1 9 Noroeste 13 Noroeste 0 924.6 -1 76
2020-03-30 06:00:00 7.2 5 Noroeste 21 Norte 0 924.9 -1.4 72
2020-03-30 05:00:00 7.9 14 Noroeste 22 Noroeste 0 925.1 -1.6 68
2020-03-30 04:00:00 8.5 6 Noroeste 23 Norte 0 925.6 -1.4 67
2020-03-30 03:00:00 9.4 13 Oeste 19 Oeste 0 926.3 -0.7 59
2020-03-30 02:00:00 9.1 10 Noroeste 15 Norte 0 926.7 -0.3 65
2020-03-30 01:00:00 9.7 9 Noroeste 17 Norte 0 927 0.3 63
2020-03-30 00:00:00 10.6 6 Norte 12 Nordeste 0 927 0.7 63
2020-03-29 23:00:00 10.8 3 Este 17 Oeste 0 927 0.7 61
2020-03-29 22:00:00 11.7 16 Oeste 23 Oeste 0 926.7 0.5 59
2020-03-29 21:00:00 13.2 18 Oeste 26 Sudoeste 0 926.3 -0.1 53
2020-03-29 20:00:00 15.2 18 Sudoeste 31 Oeste 0 926.3 -0.6 45
2020-03-29 19:00:00 17.3 18 Sudoeste 30 Oeste 0 926.2 -1.5 35
2020-03-29 18:00:00 18.5 15 Sudoeste 27 Sur 0 926.4 -2.1 34
2020-03-29 17:00:00 18.2 15 Sudoeste 29 Sudoeste 0 926.9 -2.2 38
2020-03-29 16:00:00 17.7 16 Sudoeste 24 Sudoeste 0 927.7 -2 33
2020-03-29 15:00:00 17 11 Sudoeste 22 Sudoeste 0 928.5 -1.7 36
2020-03-29 14:00:00 16 10 Sudoeste 19 Sudoeste 0 929.1 -1.2 41
2020-03-29 13:00:00 14.3 10 Sudoeste 15 Sudoeste 0 929.7 -0.7 55
2020-03-29 12:00:00 12.3 6 Sudeste 11 Sudeste 0 930.2 -0.1 65
2020-03-29 11:00:00 8.8 2 Norte 5 Oeste 0 930.3 0.4 68
2020-03-29 10:00:00 4.3 3 Noroeste 8 Noroeste 0 930.4 0.5 85
2020-03-29 09:00:00 0.8 2 Noroeste 6 Sudoeste 0 930.3 0.2 95
2020-03-29 08:00:00 0.7 4 Oeste 8 Noroeste 0 929.9 -0.4 95
2020-03-29 07:00:00 0.6 4 Noroeste 8 Sudoeste 0 929.9 -0.9 95
2020-03-29 06:00:00 1.1 6 Noroeste 9 Oeste 0 930.1 -1.3 96
2020-03-29 05:00:00 1.2 5 Noroeste 7 Noroeste 0 930.3 -1.2 94
2020-03-29 03:00:00 2.4 6 Noroeste 9 Oeste 0 931.4 -0.1 93
2020-03-29 01:00:00 2.7 5 Noroeste 10 Noroeste 0 931.5 0.1 93
2020-03-29 00:00:00 3.4 7 Noroeste 9 Noroeste 0 931.6 0.6 90
2020-03-28 23:00:00 4.5 9 Noroeste 10 Norte 0 931.5 1.2 88
2020-03-28 22:00:00 5.7 6 Norte 8 Noroeste 0 931.4 1.5 85
2020-03-28 21:00:00 7.1 5 Noroeste 12 Sudeste 0 931 1.5 80
2020-03-28 20:00:00 8.9 6 Sur 10 Sur 0 930.3 1 71
2020-03-28 19:00:00 11.3 6 Sudoeste 13 Sudeste 0 929.9 0.7 59
2020-03-28 18:00:00 11.5 6 Sur 14 Sudeste 0 929.5 -0.1 54
2020-03-28 17:00:00 11.7 6 Sur 11 Sur 0 929.3 -0.5 52
2020-03-28 16:00:00 11.9 5 Sur 10 Sur 0 929.2 -0.9 50
2020-03-28 15:00:00 11.3 6 Sur 14 Sudeste 0 929.6 -0.6 52
2020-03-28 14:00:00 11.7 4 Sur 19 Sudeste 0 929.8 -0.5 51
2020-03-28 13:00:00 12 11 Sur 26 Este 0 930.1 0.1 56
2020-03-28 12:00:00 10.9 14 Sudeste 26 Sudeste 0 930.2 0.8 56
2020-03-28 11:00:00 9.3 4 Oeste 13 Oeste 0 930.3 1.2 47
2020-03-28 10:00:00 5.8 11 Oeste 14 Oeste 0 930 1.2 66
2020-03-28 09:00:00 2.4 8 Noroeste 12 Noroeste 0 929.4 0.9 79
2020-03-28 08:00:00 0.9 5 Noroeste 15 Noroeste 0 929.1 0.9 83
2020-03-28 07:00:00 0.3 11 Noroeste 14 Noroeste 0 928.8 0.7 90
2020-03-28 06:00:00 0.7 11 Noroeste 14 Noroeste 0 928.5 0.3 89
2020-03-28 05:00:00 1.1 10 Noroeste 16 Norte 0 928.2 0 94
2020-03-28 04:00:00 1.5 8 Noroeste 13 Norte 0 928.1 0.2 92
2020-03-28 03:00:00 2.3 7 Noroeste 10 Noroeste 0 928.2 0.4 92
2020-03-28 02:00:00 3.9 3 Nordeste 8 Norte 0 928.2 0.6 87
2020-03-28 01:00:00 4.2 4 Noroeste 8 Noroeste 0 927.9 0.7 89
2020-03-28 00:00:00 4.2 4 Oeste 7 Oeste 0 927.8 0.9 90
2020-03-27 23:00:00 4.3 5 Oeste 6 Oeste 0 927.6 1.3 87
2020-03-27 22:00:00 4.4 0 Calma 9 Este 0 927.2 1.2 80
2020-03-27 21:00:00 4.6 5 Este 10 Este 0 926.9 1.3 82
2020-03-27 20:00:00 4.6 6 Este 15 Este 0 926.3 0.9 79
2020-03-27 19:00:00 4.8 7 Sudeste 24 Este 0 926 0.7 83
2020-03-27 18:00:00 4.6 16 Este 26 Este 0.2 925.6 0.2 77
2020-03-27 17:00:00 4.8 17 Este 26 Este 0.2 925.4 -0.3 83
2020-03-27 16:00:00 4.9 13 Este 25 Este 0.6 925.3 -0.4 83
2020-03-27 15:00:00 4.9 16 Este 26 Este 0.4 925.4 -0.3 84
2020-03-27 14:00:00 4.5 11 Este 21 Sudeste 1 925.7 0.3 85
2020-03-27 13:00:00 4.1 12 Este 25 Este 1 925.7 1 85
2020-03-27 12:00:00 3.8 6 Este 17 Este 1.4 925.7 1.4 86
2020-03-27 11:00:00 3.3 9 Este 18 Este 0.6 925.4 1.5 87
2020-03-27 10:00:00 3.6 12 Nordeste 23 Este 0.2 924.7 0.9 85
2020-03-27 09:00:00 3.8 4 Nordeste 17 Nordeste 0 924.3 0.7 82
2020-03-27 08:00:00 3.5 13 Nordeste 20 Nordeste 0 923.9 0.3 81
2020-03-27 07:00:00 3.2 5 Sudeste 15 Este 0 923.8 0.1 83
2020-03-27 06:00:00 2.9 3 Sudeste 15 Nordeste 0 923.6 -0.6 85
2020-03-27 05:00:00 2.7 11 Nordeste 17 Nordeste 0 923.6 -0.7 87
2020-03-27 04:00:00 2.4 3 Nordeste 8 Este 0 923.7 -0.4 94
2020-03-27 03:00:00 1.5 4 Norte 8 Norte 0 924.2 0.3 94
2020-03-27 02:00:00 1.6 5 Norte 8 Norte 0 924.3 0.7 92
2020-03-27 01:00:00 2.6 4 Este 15 Sudeste 0 924.1 0.8 92
2020-03-27 00:00:00 2.9 8 Sur 11 Este 0 923.9 1.2 89
2020-03-26 23:00:00 3.9 7 Sudeste 19 Sudeste 0 923.6 1.7 86
2020-03-26 22:00:00 5.1 11 Sudeste 19 Sudeste 0 923.3 2.2 81
2020-03-26 21:00:00 5.9 12 Sudeste 31 Sudeste 0 922.7 2.4 79
2020-03-26 20:00:00 7.1 17 Sudeste 26 Sudeste 0 921.9 1.9 71
2020-03-26 19:00:00 10.2 11 Norte 23 Nordeste 0 921.1 1 39
2020-03-26 18:00:00 12.3 12 Norte 36 Norte 0 920.3 0.1 38
2020-03-26 17:00:00 12.1 20 Norte 35 Norte 0 920 -0.4 44
2020-03-26 16:00:00 12.9 22 Norte 43 Norte 0 920.1 -0.5 44
2020-03-26 15:00:00 11.7 32 Norte 45 Norte 0 920.2 -0.9 44
2020-03-26 14:00:00 11.4 11 Norte 34 Norte 0 920.4 -1 43
2020-03-26 13:00:00 11.3 13 Norte 29 Norte 0 920.6 -0.9 49
2020-03-26 12:00:00 11.1 20 Norte 38 Norte 0 921.1 -0.6 51
2020-03-26 11:00:00 10.2 18 Norte 38 Norte 0 921.4 0.1 57
2020-03-26 10:00:00 8.5 14 Norte -- -- -- 921.5 0.3 63
2020-03-26 09:00:00 6.8 28 Norte 40 Norte 0 921.7 0.2 68
2020-03-26 08:00:00 4.3 10 Norte 13 Norte 0 921.3 -0.8 94
2020-03-26 07:00:00 4.6 8 Noroeste 17 Oeste 0 921.2 -1.6 90
2020-03-26 06:00:00 4.9 4 Noroeste 12 Noroeste 0 921.5 -2 92
2020-03-26 05:00:00 4.7 6 Noroeste 11 Sudoeste 0 922.1 -2.3 94
2020-03-26 04:00:00 4 3 Sudoeste 8 Nordeste 0 922.8 -2.3 95
2020-03-26 03:00:00 3.8 3 Nordeste 8 Oeste 0 923.5 -2.4 94
2020-03-26 02:00:00 4.3 6 Oeste 15 Oeste 0 924.4 -2 94
2020-03-26 01:00:00 4.4 5 Sudoeste 9 Sudoeste 0.2 925.1 -1.4 95
2020-03-26 00:00:00 4.4 6 Sur 10 Sudeste 0 925.9 -1.3 94
2020-03-25 23:00:00 4.6 4 Sudeste 17 Sudeste 0.2 926.4 -0.2 94
2020-03-25 22:00:00 4.7 10 Sudeste 14 Sudeste 0.8 926.5 0.2 94
2020-03-25 21:00:00 5 6 Sudeste 16 Sudeste 0 927.2 0.6 93
2020-03-25 20:00:00 5.1 13 Sudeste 24 Sudeste 0 926.6 -0.2 92
2020-03-25 19:00:00 6 16 Sudeste 23 Sudeste 0 926.3 -1 89
2020-03-25 18:00:00 7.6 13 Sudeste 18 Sudeste 0 926.6 -0.5 83
2020-03-25 17:00:00 6.9 10 Sudeste 17 Sudeste 1 926.8 -0.9 83
2020-03-25 16:00:00 6 9 Este 26 Este 2.4 927.3 -1 89
2020-03-25 15:00:00 7.3 15 Sudeste 20 Sudeste 0 927.1 -1.5 81
2020-03-25 14:00:00 7.3 12 Sur 18 Sur 0 927.7 -- 79
2020-03-25 13:00:00 7.1 9 Sur 14 Sur 0 928.3 -- 77
2020-03-25 12:00:00 7 6 Sudoeste -- -- -- 928.6 -- 75
2020-03-25 11:00:00 -- -- -- -- -- -- -- -- --
2020-03-25 10:00:00 -- -- -- -- -- -- -- -- --
2020-03-25 09:00:00 -- -- -- -- -- -- -- -- --
2020-03-25 08:00:00 -- -- -- -- -- -- -- -- --
2020-03-25 07:00:00 -- -- -- -- -- -- -- -- --
2020-03-25 06:00:00 -- -- -- -- -- -- -- -- --
2020-03-25 05:00:00 -- -- -- -- -- -- -- -- --
2020-03-25 04:00:00 -- -- -- -- -- -- -- -- --
2020-03-25 03:00:00 -- -- -- -- -- -- -- -- --
2020-03-25 02:00:00 -- -- -- -- -- -- -- -- --
2020-03-25 01:00:00 -- -- -- -- -- -- -- -- --
2020-03-25 00:00:00 -- -- -- -- -- -- -- -- --
2020-03-24 23:00:00 -- -- -- -- -- -- -- -- --
2020-03-24 22:00:00 -- -- -- -- -- -- -- -- --
2020-03-24 21:00:00 -- -- -- -- -- -- -- -- --
2020-03-24 20:00:00 -- -- -- -- -- -- -- -- --
2020-03-24 19:00:00 -- -- -- -- -- -- -- -- --
2020-03-24 18:00:00 -- -- -- -- -- -- -- -- --
2020-03-24 17:00:00 -- -- -- -- -- -- -- -- --
2020-03-24 16:00:00 -- -- -- -- -- -- -- -- --
2020-03-24 15:00:00 -- -- -- -- -- -- -- -- --
2020-03-24 14:00:00 -- -- -- -- -- -- -- -- --
2020-03-24 13:00:00 -- -- -- -- -- -- -- -- --
2020-03-24 12:00:00 -- -- -- -- -- -- -- -- --
2020-03-24 11:00:00 -- -- -- -- -- -- -- -- --
2020-03-24 10:00:00 -- -- -- -- -- -- -- -- --
2020-03-24 09:00:00 -- -- -- -- -- -- -- -- --
2020-03-24 08:00:00 -- -- -- -- -- -- -- -- --
2020-03-24 07:00:00 -- -- -- -- -- -- -- -- --
2020-03-24 06:00:00 -- -- -- -- -- -- -- -- --
2020-03-24 05:00:00 -- -- -- -- -- -- -- -- --
2020-03-24 04:00:00 -- -- -- -- -- -- -- -- --
2020-03-24 03:00:00 -- -- -- -- -- -- -- -- --
2020-03-24 02:00:00 -- -- -- -- -- -- -- -- --
2020-03-24 01:00:00 -- -- -- -- -- -- -- -- --
2020-03-24 00:00:00 -- -- -- -- -- -- -- -- --
2020-03-23 23:00:00 -- -- -- -- -- -- -- -- --
2020-03-23 22:00:00 -- -- -- -- -- -- -- -- --
2020-03-23 21:00:00 -- -- -- -- -- -- -- -- --
2020-03-23 20:00:00 -- -- -- -- -- -- -- -- --
2020-03-23 19:00:00 -- -- -- -- -- -- -- -- --
2020-03-23 18:00:00 -- -- -- -- -- -- -- -- --
2020-03-23 17:00:00 -- -- -- -- -- -- -- -- --
2020-03-23 16:00:00 -- -- -- -- -- -- -- -- --
2020-03-23 15:00:00 -- -- -- -- -- -- -- -- --
2020-03-23 14:00:00 -- -- -- -- -- -- -- -- --
2020-03-23 13:00:00 -- -- -- -- -- -- -- -- --
2020-03-23 12:00:00 -- -- -- -- -- -- -- -- --
2020-03-23 11:00:00 -- -- -- -- -- -- -- -- --
2020-03-23 10:00:00 -- -- -- -- -- -- -- -- --
2020-03-23 09:00:00 -- -- -- -- -- -- -- -- --
2020-03-23 08:00:00 -- -- -- -- -- -- -- -- --
2020-03-23 07:00:00 -- -- -- -- -- -- -- -- --
2020-03-23 06:00:00 -- -- -- -- -- -- -- -- --
2020-03-23 05:00:00 7.5 5 Sudeste 18 Este 1 926.4 -0.2 90
2020-03-23 04:00:00 7.7 10 Este 17 Este 0.2 926.2 -0.5 88
2020-03-23 03:00:00 7.6 6 Sudeste 11 Sudeste 0.2 926.4 -0.5 91
2020-03-23 02:00:00 7.4 0 Calma 6 Norte 3.4 926.6 -0.2 94
2020-03-23 01:00:00 7.4 2 Noroeste 8 Noroeste 2.4 926.7 0.1 94
2020-03-23 00:00:00 7.5 3 Oeste 5 Oeste 0.8 926.9 0.9 92
2020-03-22 23:00:00 7.5 4 Sur 10 Sudeste 1 926.8 1.3 91
2020-03-22 22:00:00 7.7 9 Sudeste 15 Sudeste 0.2 926.6 1.8 87
2020-03-22 21:00:00 8 8 Sudeste 21 Sudeste 0.4 926 1.6 88
2020-03-22 20:00:00 8.3 13 Sudeste 22 Sudeste 0.2 925.5 1.5 89
2020-03-22 19:00:00 8.7 12 Sudeste 24 Sudeste 0.6 924.8 0.9 88
2020-03-22 18:00:00 9 18 Sudeste 27 Sudeste 0.4 924.4 0.6 88
2020-03-22 17:00:00 10.2 17 Sudeste 31 Sudeste 0 924 -0.3 77
2020-03-22 16:00:00 11 18 Este 30 Sudeste 0 923.9 -0.6 70
2020-03-22 15:00:00 11.3 15 Sudeste 26 Sudeste 0 923.8 -1 68
2020-03-22 14:00:00 10.7 17 Sudeste 24 Sudeste 0 924.3 -0.3 73
2020-03-22 13:00:00 10.6 17 Sudeste 24 Sudeste 0 924.5 0.2 75
2020-03-22 12:00:00 10.2 18 Sudeste 27 Sudeste 0 924.8 0.8 78
2020-03-22 11:00:00 9.1 8 Sudeste 17 Sudeste 0 924.6 0.8 84
2020-03-22 10:00:00 9.2 2 Sudeste 5 Norte 0 924.3 1 83
2020-03-22 09:00:00 7.1 2 Norte 8 Noroeste 0 924 0.6 92
2020-03-22 08:00:00 6.6 3 Noroeste 8 Noroeste 0 923.8 0.3 94
2020-03-22 07:00:00 6.4 6 Noroeste 7 Noroeste 0 923.3 -0.3 94
2020-03-22 06:00:00 6.4 3 Nordeste 9 Noroeste 0 923.4 -0.6 93
2020-03-22 05:00:00 6.2 7 Noroeste 11 Noroeste 0 923.5 -0.9 93
2020-03-22 04:00:00 6.2 8 Noroeste 13 Noroeste 0 923.6 -1.2 93
2020-03-22 03:00:00 5.9 8 Noroeste 13 Noroeste 0 924 -1.1 93
2020-03-22 02:00:00 6.1 7 Noroeste 14 Noroeste 0 924.4 -1.4 93
2020-03-22 01:00:00 6.2 7 Noroeste 11 Norte 0.2 924.8 -1.1 92
2020-03-22 00:00:00 6.3 6 Norte 17 Nordeste 2.2 925.1 -0.4 93
2020-03-21 23:00:00 6.4 6 Norte 12 Oeste 2.4 925.8 0.7 92
2020-03-21 22:00:00 6.7 8 Oeste 13 Oeste 1.4 925.9 1.3 91
2020-03-21 21:00:00 6.8 10 Oeste 15 Oeste 0.6 925.5 1.4 91
2020-03-21 20:00:00 7.5 12 Sur 23 Sur 0 925.1 1.1 92
2020-03-21 19:00:00 8.3 15 Sur 23 Sudeste 0 924.6 0.1 88
2020-03-21 18:00:00 9.2 16 Sur 25 Sur 0 924.1 -0.9 83
2020-03-21 17:00:00 9.8 13 Sudeste 23 Sudeste 0 924 -1.5 79
2020-03-21 16:00:00 9.8 13 Sudeste 21 Sudeste 0 924.5 -1.5 81
2020-03-21 15:00:00 10.2 14 Sudeste 22 Sudeste 0 925 -1.3 80
2020-03-21 14:00:00 10.1 11 Sudeste 15 Sudeste 0 925.5 -1.1 81
2020-03-21 13:00:00 9.6 9 Sudeste 15 Sudeste 0 926 -0.8 81
2020-03-21 12:00:00 9.6 10 Sudeste 14 Sudeste 0 926.3 -0.2 79
2020-03-21 11:00:00 8.8 11 Sudeste 18 Sudeste 0 926.6 0.2 79
2020-03-21 10:00:00 8 10 Sudeste 14 Sudeste 0 926.8 0.4 82
2020-03-21 09:00:00 7.4 5 Noroeste 9 Noroeste 0 926.5 0.1 89
2020-03-21 08:00:00 7 3 Norte 5 Sudeste 0 926.4 -0.3 89
2020-03-21 07:00:00 6.9 4 Sudeste 7 Sudeste 0 926.4 -0.6 87
2020-03-21 06:00:00 7.1 7 Este 14 Sudeste 0 926.4 -1.4 83
2020-03-21 05:00:00 6.9 4 Sudeste 10 Nordeste 0 926.7 -1.9 88
2020-03-21 04:00:00 6.9 4 Norte 8 Norte 0 927 -2 93
2020-03-21 03:00:00 6.8 5 Noroeste 6 Noroeste 0.2 927.8 -1.5 93
2020-03-21 02:00:00 7.2 3 Sudeste 10 Este 0 928.6 -0.9 91
2020-03-21 01:00:00 7.5 8 Este 21 Este 0 929 -0.1 84
2020-03-21 00:00:00 7.7 12 Este 22 Este 0 929.3 0.4 82
2020-03-20 23:00:00 7.6 10 Este 19 Sudeste 0 929.5 0.6 83
2020-03-20 22:00:00 7.2 13 Sudeste 17 Sudeste 0 929.1 0.2 87
2020-03-20 21:00:00 7.3 6 Este 18 Sudeste 0 928.9 0 83
2020-03-20 20:00:00 8.2 9 Sudeste 18 Sudeste 0 928.9 -0.5 81
2020-03-20 19:00:00 9.2 14 Este 22 Este 0 928.9 -0.7 75
2020-03-20 18:00:00 9.3 7 Este 19 Este 0 928.9 -1.2 80
2020-03-20 17:00:00 9.1 15 Este 22 Este 0 929.4 -1 80
2020-03-20 16:00:00 9.2 17 Sudeste 28 Sudeste 0.2 929.6 -0.9 81
2020-03-20 15:00:00 9.1 14 Sudeste 27 Este 0.8 930.1 -0.7 84
2020-03-20 14:00:00 9.6 15 Este 26 Este 0 930.4 -0.6 77
2020-03-20 13:00:00 10.3 16 Sudeste 25 Sudeste 0 930.5 -0.4 70
2020-03-20 12:00:00 10.1 14 Este 24 Este 0 930.8 0.1 70
2020-03-20 11:00:00 9.1 13 Este 22 Sudeste 0 931 0.7 76
2020-03-20 10:00:00 8.7 9 Este 21 Sudeste 0 930.9 0.9 79
2020-03-20 09:00:00 8.2 9 Este 21 Este 0 930.7 0.6 80
2020-03-20 08:00:00 7.7 10 Este 22 Este 0 930.3 0.2 88
2020-03-20 07:00:00 7.8 11 Este 16 Este 0 930 -0.4 85
2020-03-20 06:00:00 7.8 8 Este 16 Este 0 930.1 -0.9 86
2020-03-20 05:00:00 7.9 4 Nordeste 13 Este 0 930.1 -1.2 87
2020-03-20 04:00:00 8 5 Este 13 Este 0 930.4 -1.2 85
2020-03-20 03:00:00 8.2 9 Este 15 Este 0 931 -1 82
2020-03-20 02:00:00 8.2 8 Sudeste 15 Este 0 931.3 -1.1 81
2020-03-20 01:00:00 8.2 9 Sudeste 13 Sudeste 0 931.6 -0.8 83
2020-03-20 00:00:00 8.1 7 Sudeste 14 Sudeste 0 932 -0.4 87
2020-03-19 23:00:00 8.2 9 Sudeste 17 Sudeste 0 932.4 0.2 85
2020-03-19 22:00:00 8.2 8 Sudeste 21 Sudeste 0 932.4 0.3 84
2020-03-19 21:00:00 8.7 9 Sudeste 17 Sudeste 0 932.4 0.4 84
2020-03-19 20:00:00 9.1 8 Sudeste 19 Sudeste 0 932.2 -0.1 85
2020-03-19 19:00:00 9.6 14 Sudeste 20 Sudeste 0 932.1 -0.5 84
2020-03-19 18:00:00 9.8 13 Sudeste 22 Sudeste 0 932 -1.3 84
2020-03-19 17:00:00 10.3 18 Sudeste 25 Sudeste 0 932.3 -1.7 81
2020-03-19 16:00:00 11.5 13 Sudeste 23 Sudeste 0 932.6 -1.9 70
2020-03-19 15:00:00 11.4 10 Este 19 Este 0 933.3 -1.4 65
2020-03-19 14:00:00 11 11 Sudeste 23 Sudeste 0 934 -1.1 66
2020-03-19 13:00:00 10.7 18 Sudeste 26 Sudeste 0 934.5 -0.4 71
2020-03-19 12:00:00 10.9 15 Sudeste 28 Sudeste 0 934.7 -0.1 67
2020-03-19 11:00:00 10.3 15 Sudeste 23 Sudeste 0 935.1 0.5 72
2020-03-19 10:00:00 9 3 Este 5 Sudeste 0 934.9 0.2 80
2020-03-19 09:00:00 7.4 3 Noroeste 9 Noroeste 0 934.8 0 90
2020-03-19 08:00:00 5.9 6 Noroeste 9 Norte 0 934.6 -0.3 93
2020-03-19 07:00:00 5.2 6 Noroeste 10 Noroeste 0 934.7 -0.4 95
2020-03-19 06:00:00 4 3 Sudoeste 12 Noroeste 0 934.8 -0.8 96
2020-03-19 05:00:00 3.7 8 Noroeste 10 Norte 0 934.9 -1.2 96
2020-03-19 04:00:00 3.8 5 Noroeste 7 Noroeste 0 935.1 -1.4 95
2020-03-19 03:00:00 4.5 4 Sudoeste 6 Norte 0 935.6 -1.2 94
2020-03-19 02:00:00 5.3 4 Noroeste 7 Sudeste 0 936.1 -0.9 93
2020-03-19 01:00:00 6.3 0 Calma 5 Noroeste 0 936.5 -0.5 92
2020-03-19 00:00:00 6.9 3 Sudeste 10 Sudeste 0 936.8 0 90
2020-03-18 23:00:00 7.7 8 Sudeste 13 Este 0 937 0.4 88
2020-03-18 22:00:00 8.6 9 Este 19 Este 0 937 0.7 83
2020-03-18 21:00:00 9.3 10 Este 16 Este 0 936.8 0.7 81
2020-03-18 20:00:00 10.2 11 Este 19 Este 0 936.6 0.4 77
2020-03-18 19:00:00 11.5 11 Este 23 Este 0 936.3 -0.2 68
2020-03-18 18:00:00 12.9 12 Este 26 Nordeste 0 936.1 -0.7 59
2020-03-18 17:00:00 14.1 14 Nordeste 31 Este 0 936.2 -1.3 50
2020-03-18 16:00:00 14.4 18 Este 35 Este 0 936.5 -1.5 52
2020-03-18 15:00:00 14.7 14 Este 27 Este 0 936.8 -1.6 55
2020-03-18 14:00:00 14.7 13 Nordeste 28 Este 0 937.5 -1 54
2020-03-18 13:00:00 12.6 18 Este 32 Este 0 938 -0.6 61
2020-03-18 12:00:00 11.5 24 Este 36 Este 0 938.4 0.1 62
2020-03-18 11:00:00 11.2 27 Este 37 Este 0 938.5 0.1 63
2020-03-18 10:00:00 10.5 17 Este 32 Este 0 938.6 0.5 69
2020-03-18 09:00:00 9.3 12 Este 21 Este 0 938.3 0 77
2020-03-18 08:00:00 8.5 4 Sudeste 29 Nordeste 0 938.4 0.1 80
2020-03-18 07:00:00 8.8 17 Nordeste 29 Nordeste 0 938.1 0 78
2020-03-18 06:00:00 9.1 12 Este 26 Sudeste 0 938.3 -0.3 75
2020-03-18 05:00:00 9.2 6 Nordeste 35 Este 0 938.3 -0.5 74
2020-03-18 04:00:00 9.2 18 Este 37 Este 0 938.1 -1 72
2020-03-18 03:00:00 9.2 17 Este 38 Este 0 938.6 -0.7 73
2020-03-18 02:00:00 9.3 15 Este 32 Este 0 938.8 -0.5 70
2020-03-18 01:00:00 9.1 12 Nordeste 30 Este 0 939.1 -0.1 76
2020-03-18 00:00:00 9.3 14 Este 33 Este 0 939.3 0.8 77
2020-03-17 23:00:00 9.6 20 Este 39 Este 0 939.3 1.5 79
2020-03-17 22:00:00 10.1 12 Nordeste 31 Nordeste 0 939.2 1.9 79
2020-03-17 21:00:00 10.4 17 Este 35 Este 0 938.5 1.4 81
2020-03-17 20:00:00 10.6 18 Este 40 Este 0 937.8 1.6 83
2020-03-17 19:00:00 10.8 20 Este 36 Este 0.2 937.3 1 82
2020-03-17 18:00:00 11.1 23 Este 45 Este 0 937.1 1 83
2020-03-17 17:00:00 11.4 19 Este 41 Nordeste 0 936.2 -0.1 86
2020-03-17 16:00:00 11.7 18 Este 37 Este 0 936.3 -0.2 86
2020-03-17 15:00:00 11.8 10 Este 20 Este 0.2 936.1 -0.6 85
2020-03-17 14:00:00 10.8 9 Nordeste 16 Nordeste 0.4 936.3 -0.2 88
2020-03-17 13:00:00 10.4 8 Nordeste 14 Nordeste 0.6 936.5 0.7 91
2020-03-17 12:00:00 9.4 7 Nordeste 13 Nordeste 0.2 936.7 1.7 89
2020-03-17 11:00:00 8.9 6 Este 14 Este 2.6 936.5 2.6 90
2020-03-17 10:00:00 8.2 5 Nordeste 10 Noroeste 1.6 935.8 2.4 93
2020-03-17 09:00:00 8.1 4 Sudeste 12 Este 1.8 935 2.5 92
2020-03-17 08:00:00 7.8 4 Este 9 Nordeste 1 933.9 2.2 93
2020-03-17 07:00:00 7.7 4 Norte 10 Sudeste 0.6 933.4 2 94
2020-03-17 06:00:00 7.9 8 Sudeste 15 Sudeste 1 932.5 1.2 92
2020-03-17 05:00:00 8 9 Sudeste 27 Sudeste 1 931.7 0.5 91
2020-03-17 04:00:00 8.2 9 Sudeste 26 Este 0 931.4 0.6 87
2020-03-17 03:00:00 7.7 8 Sur 13 Sur 0.6 931.3 0.9 94
2020-03-17 02:00:00 6 2 Este 8 Noroeste 0.2 931.2 1 94
2020-03-17 01:00:00 5.3 4 Noroeste 11 Noroeste 0 930.8 1.2 93
2020-03-17 00:00:00 4.9 9 Norte 17 Norte 0 930.4 1.5 93
2020-03-16 23:00:00 4.5 8 Noroeste 16 Noroeste 0 930.2 2.2 93
2020-03-16 22:00:00 4.1 8 Oeste 15 Noroeste 0.2 929.6 2.4 93
2020-03-16 21:00:00 4 9 Noroeste 16 Noroeste 1 928.9 2.6 94
2020-03-16 20:00:00 4 8 Noroeste 15 Noroeste 1 928 1.7 93
2020-03-16 19:00:00 4 3 Oeste 14 Noroeste 1.2 927.2 1.2 92
2020-03-16 18:00:00 3.9 12 Norte 22 Norte 2 926.3 -0.1 91
2020-03-16 17:00:00 3.1 16 Norte 26 Norte 1.2 926.3 0.2 93
2020-03-16 16:00:00 3.1 14 Noroeste 22 Noroeste 0.8 926 -0.4 92
2020-03-16 15:00:00 2.2 8 Norte 16 Noroeste 3.6 926.4 0.1 92
2020-03-16 14:00:00 3.4 12 Noroeste 22 Norte 1.4 926.1 0.1 90
2020-03-16 13:00:00 4.3 8 Noroeste 22 Noroeste 0.8 926.4 1.1 87
2020-03-16 12:00:00 4.6 14 Noroeste 19 Noroeste 0 926.3 2.8 83
2020-03-16 11:00:00 5.3 11 Oeste 23 Oeste 0.2 926 3.5 83
2020-03-16 10:00:00 5.3 20 Oeste 50 Oeste 0.6 925.3 3 85
2020-03-16 09:00:00 7.9 29 Sudoeste 47 Oeste 5.6 923.5 1.1 85
2020-03-16 08:00:00 9.4 23 Sudeste 36 Sudeste 0 922.5 -0.4 92
2020-03-16 07:00:00 9.2 18 Sudeste 26 Sudeste 0 922.3 -1.7 91
2020-03-16 06:00:00 9.2 9 Sudeste 17 Sudeste 0 922.4 -2.8 90
2020-03-16 05:00:00 9.2 9 Sudeste 26 Sudeste 0.8 922.9 -2.7 92
2020-03-16 04:00:00 9.2 14 Sudeste 22 Sudeste 1.4 924 -2.4 93
2020-03-16 03:00:00 9.4 3 Oeste 12 Sudeste 0.8 925.2 -1.7 91
2020-03-16 02:00:00 9.4 9 Este 22 Sudeste 0.2 925.6 -1.7 89
2020-03-16 01:00:00 9.6 4 Norte 7 Noroeste 0 926.4 -0.8 83
2020-03-16 00:00:00 9.2 3 Noroeste 9 Oeste 0 926.9 -0.9 82
2020-03-15 23:00:00 8.8 3 Noroeste 15 Noroeste 0 927.3 0.8 82
2020-03-15 22:00:00 8 13 Noroeste 17 Noroeste 0 927.2 0.8 81
2020-03-15 21:00:00 7.6 10 Norte 42 Noroeste 0 927.8 2 78
2020-03-15 20:00:00 11.4 16 Sudeste 27 Sudeste 0 926.5 0.1 81
2020-03-15 19:00:00 12.8 15 Sudeste 33 Sudeste 0 926.4 -0.2 72
2020-03-15 18:00:00 15.5 23 Sudeste 32 Sudeste 0 925.8 -1.6 60
2020-03-15 17:00:00 17.1 21 Sudeste 32 Sudeste 0 926.4 -2 54
2020-03-15 16:00:00 18.5 19 Sudeste 31 Sudeste 0 926.6 -3 41
2020-03-15 15:00:00 18.2 17 Sudeste 34 Sur 0 927.4 -2.9 43
2020-03-15 14:00:00 19.2 18 Sur 27 Sur 0 928.4 -2.4 38
2020-03-15 13:00:00 17.6 15 Sur 26 Sur 0 929.6 -1.4 45
2020-03-15 12:00:00 15.1 13 Sudeste 22 Sudeste 0 930.3 -0.6 49
2020-03-15 11:00:00 13.3 9 Sudeste 14 Sudeste 0 930.8 0.4 59
2020-03-15 10:00:00 11.6 5 Sudeste -- -- 0 931 0.6 68
2020-03-15 09:00:00 7.5 0 Calma 5 Sur 0 930.9 0.4 89
2020-03-15 08:00:00 5.2 3 Nordeste 9 Noroeste 0 930.4 -0.4 93
2020-03-15 07:00:00 5.1 4 Noroeste 12 Noroeste 0 930.4 -0.5 93
2020-03-15 06:00:00 5.8 9 Noroeste 12 Noroeste 0 930.5 -1.1 93
2020-03-15 05:00:00 6.4 8 Noroeste 11 Noroeste 0 930.8 -1.2 92
2020-03-15 04:00:00 6.8 8 Noroeste 14 Noroeste 0 930.9 -1.5 92
2020-03-15 03:00:00 6.9 10 Noroeste 12 Noroeste 0 931.6 -0.9 93
2020-03-15 02:00:00 7.1 7 Norte 15 Noroeste 0 932 -0.5 89
2020-03-15 01:00:00 7.6 10 Noroeste 12 Noroeste 0 932.4 0.3 91
2020-03-15 00:00:00 8.7 9 Noroeste 12 Noroeste 0 932.5 0.6 86
2020-03-14 23:00:00 9.8 4 Noroeste 11 Noroeste 0 932.5 1.1 81
2020-03-14 22:00:00 11.1 6 Oeste 9 Sur 0 932.1 1.1 75
2020-03-14 21:00:00 12.9 4 Sudeste 11 Sudeste 0 931.9 1.4 67
2020-03-14 20:00:00 14.5 8 Este 22 Sudeste 0 931.4 0.9 65
2020-03-14 19:00:00 16.8 15 Sudeste 26 Sudeste 0 931 0.5 56
2020-03-14 18:00:00 19.1 19 Sudeste 28 Sudeste 0 930.5 -0.6 43
2020-03-14 17:00:00 20.7 15 Sudeste 24 Sudeste 0 930.5 -1.3 35
2020-03-14 16:00:00 20.9 14 Sur 23 Sudeste 0 930.5 -2 35
2020-03-14 15:00:00 20.3 13 Sudeste 23 Sudeste 0 931.1 -1.8 37
2020-03-14 14:00:00 19.3 12 Sur 21 Sudeste 0 931.8 -1.3 41
2020-03-14 13:00:00 18.2 10 Sur 22 Sur 0 932.5 -0.4 45
2020-03-14 12:00:00 17.3 11 Sudeste 22 Sudeste 0 932.9 0.5 46
2020-03-14 11:00:00 15.5 9 Sur 14 Sudeste 0 933.1 1.2 51
2020-03-14 10:00:00 12.2 4 Noroeste 13 Norte 0 932.9 1.3 67
2020-03-14 09:00:00 7.5 8 Norte 13 Noroeste 0 932.4 1.1 89
2020-03-14 08:00:00 4.6 5 Norte 11 Norte 0 931.9 0.6 94
2020-03-14 07:00:00 4.9 5 Noroeste 12 Noroeste 0 931.6 0 93
2020-03-14 06:00:00 5.3 8 Noroeste 13 Norte 0 931.3 -0.8 96
2020-03-14 05:00:00 5.8 10 Noroeste 16 Noroeste 0 931.3 -1 96
2020-03-14 04:00:00 6.7 10 Noroeste 17 Norte 0 931.6 -0.7 96
2020-03-14 03:00:00 6.9 10 Noroeste 14 Norte 0 932.1 -0.2 95
2020-03-14 02:00:00 6.5 7 Noroeste 12 Noroeste 0 932.3 0.2 91
2020-03-14 01:00:00 7.2 6 Norte 9 Norte 0 932.3 0.3 89
2020-03-14 00:00:00 8 7 Norte 11 Norte 0 932.3 0.8 85
2020-03-13 23:00:00 9.4 7 Norte 10 Noroeste 0 932.1 1 79
2020-03-13 22:00:00 9.8 6 Noroeste 10 Oeste 0 932 1.3 77
2020-03-13 21:00:00 10.5 2 Sudoeste 10 Este 0 931.5 1 73
2020-03-13 20:00:00 11.9 9 Este 23 Sudeste 0 931.1 0.4 72
2020-03-13 19:00:00 13.7 16 Sudeste 22 Sudeste 0 930.7 -0.2 63
2020-03-13 18:00:00 15.6 13 Sudeste 27 Sudeste 0 930.5 -0.7 56
2020-03-13 17:00:00 16 18 Sudeste 32 Sudeste 0 930.7 -1.4 54
2020-03-13 16:00:00 16.5 17 Sudeste 33 Sudeste 0 930.9 -1.7 51
2020-03-13 15:00:00 17.2 21 Sudeste 33 Sudeste 0 931.2 -1.6 47
2020-03-13 14:00:00 16.6 19 Sudeste 32 Sudeste 0 932.1 -0.6 49
2020-03-13 13:00:00 16.7 21 Sudeste 33 Sudeste 0 932.6 0 43
2020-03-13 12:00:00 15.4 23 Sudeste 32 Sudeste 0 932.8 0.7 45
2020-03-13 11:00:00 15.4 17 Sudeste 26 Sudeste 0 932.7 1.1 44
2020-03-13 10:00:00 13.2 10 Este 17 Este 0 932.6 1.6 55
2020-03-13 09:00:00 8.1 2 Nordeste 6 Noroeste 0 932.1 1.6 83
2020-03-13 08:00:00 6.6 6 Noroeste 10 Oeste 0 931.6 1.4 84
2020-03-13 07:00:00 7.1 4 Sudoeste 7 Noroeste 0 931 0.9 83
2020-03-13 06:00:00 7.7 2 Oeste 8 Noroeste 0 930.5 0 82
2020-03-13 05:00:00 8.6 8 Noroeste 12 Noroeste 0 930.2 -0.5 78
2020-03-13 04:00:00 8.4 0 Calma 12 Noroeste 0 930.1 -0.9 80
2020-03-13 03:00:00 9.5 5 Noroeste 10 Norte 0 930.5 -0.8 77
2020-03-13 02:00:00 10.2 8 Norte 11 Noroeste 0 930.7 -0.5 75
2020-03-13 01:00:00 11.4 9 Norte 14 Noroeste 0 931 -0.1 73
2020-03-13 00:00:00 12.1 7 Norte 11 Noroeste 0 931.3 0.2 71
2020-03-12 23:00:00 14.2 10 Noroeste 16 Noroeste 0 931.2 0.6 66
2020-03-12 22:00:00 15.1 10 Noroeste 18 Norte 0 931.1 0.8 62
2020-03-12 21:00:00 16.6 10 Noroeste 15 Noroeste 0 931.1 1.2 58
2020-03-12 20:00:00 19.1 10 Sudeste 23 Sudeste 0 930.6 0.3 51
2020-03-12 19:00:00 22 16 Sudeste 23 Sudeste 0 930.3 -0.5 43
2020-03-12 18:00:00 25.6 10 Sur 20 Sudeste 0 929.9 -1.8 23
2020-03-12 17:00:00 26.6 10 Sur 20 Sur 0 930.3 -2.5 21
2020-03-12 16:00:00 27.2 8 Sudoeste 18 Sudeste 0 930.8 -2.7 19
2020-03-12 15:00:00 26.9 6 Sudeste 19 Sur 0 931.7 -2.3 19
2020-03-12 14:00:00 26.3 11 Sur 24 Sudeste 0 932.8 -1.6 19
2020-03-12 13:00:00 24.7 8 Sudeste 14 Sudeste 0 933.5 -0.9 27
2020-03-12 12:00:00 22.8 5 Sudeste 9 Sudeste 0 934 -0.1 31
2020-03-12 11:00:00 19.6 5 Este 9 Sudeste 0 934.4 0.5 41
2020-03-12 10:00:00 16.4 2 Sudeste 9 Noroeste 0 934.4 0.5 50
2020-03-12 09:00:00 10.3 8 Oeste 12 Noroeste 0 934.1 0.2 69
2020-03-12 08:00:00 7.6 10 Noroeste 12 Noroeste 0 933.9 -0.1 75
2020-03-12 07:00:00 7.4 3 Noroeste 12 Noroeste 0 933.9 -0.8 74
2020-03-12 06:00:00 7.8 4 Norte 14 Oeste 0 933.9 -1.5 73
2020-03-12 05:00:00 8.5 8 Noroeste 13 Noroeste 0 934 -1.6 72
2020-03-12 04:00:00 9.2 10 Noroeste 17 Noroeste 0 934.7 -0.9 69
2020-03-12 03:00:00 9.5 10 Noroeste 13 Noroeste 0 935.4 -0.4 68
2020-03-12 02:00:00 11.3 3 Oeste 12 Noroeste 0 935.6 -0.4 59
2020-03-12 01:00:00 11.9 10 Noroeste 12 Noroeste 0 935.6 -0.2 59
2020-03-12 00:00:00 12.3 10 Noroeste 13 Noroeste 0 935.8 0.3 60
2020-03-11 23:00:00 12.8 11 Norte 14 Norte 0 936 0.6 61
2020-03-11 22:00:00 14.6 8 Noroeste 17 Noroeste 0 935.8 0.9 55
2020-03-11 21:00:00 15.8 14 Noroeste 18 Noroeste 0 935.5 1.4 53
2020-03-11 20:00:00 18.3 13 Noroeste 19 Sudeste 0 935.4 1.3 46
2020-03-11 19:00:00 21.6 14 Sudeste 29 Sudeste 0 934.9 0.4 37
2020-03-11 18:00:00 25.9 18 Sur 28 Sur 0 934.1 -0.9 24
2020-03-11 17:00:00 26.9 15 Sur 27 Sur 0 934.1 -1.7 23
2020-03-11 16:00:00 27 16 Sur 24 Sur 0 934.5 -2.1 23
2020-03-11 15:00:00 26.8 12 Sur 22 Sudeste 0 935 -2.1 23
2020-03-11 14:00:00 25.9 8 Sur 17 Sur 0 935.8 -1.6 25
2020-03-11 13:00:00 24.4 7 Sur 15 Sudoeste 0 936.6 -0.8 28
2020-03-11 12:00:00 22.4 5 Sudeste 11 Sudeste 0 937.1 0.1 31
2020-03-11 11:00:00 18.8 5 Sudeste 9 Sudeste 0 937.4 0.5 40
2020-03-11 10:00:00 14.7 3 Sudeste 5 Sudeste 0 937.4 0.8 50
2020-03-11 09:00:00 9.6 3 Sudoeste 10 Noroeste 0 937 0.4 67
2020-03-11 08:00:00 5.9 6 Noroeste 10 Oeste 0 936.9 0.6 79
2020-03-11 07:00:00 4.6 10 Oeste 12 Oeste 0 936.6 -0.1 81
2020-03-11 06:00:00 5.6 4 Noroeste 8 Norte 0 936.6 -0.4 74
2020-03-11 05:00:00 6.4 6 Norte 8 Norte 0 936.3 -0.9 75
2020-03-11 04:00:00 7.4 2 Sudeste 9 Nordeste 0 936.7 -0.6 71
2020-03-11 03:00:00 8.4 3 Este 13 Norte 0 937 -0.4 69
2020-03-11 02:00:00 8.2 13 Noroeste 15 Noroeste 0 937.2 0 69
2020-03-11 01:00:00 10.5 2 Este 10 Este 0 937.3 0.4 63
2020-03-11 00:00:00 12.1 5 Noroeste 10 Oeste 0 937.4 0.9 54
2020-03-10 23:00:00 13.7 3 Este 8 Este 0 937.2 1 52
2020-03-10 22:00:00 14.9 7 Noroeste 14 Norte 0 936.9 1.2 48
2020-03-10 21:00:00 16.5 7 Noroeste 17 Oeste 0 936.5 1 41
2020-03-10 20:00:00 18.1 14 Oeste 17 Oeste 0 936.2 0.4 34
2020-03-10 19:00:00 21.8 8 Oeste 10 Oeste 0 935.7 -0.4 28
2020-03-10 18:00:00 23.7 10 Oeste 18 Oeste 0 935.5 -1.1 23
2020-03-10 17:00:00 24.1 11 Oeste 26 Oeste 0 935.8 -1.5 23
2020-03-10 16:00:00 23.3 6 Oeste 21 Sudoeste 0 936.1 -2 24
2020-03-10 15:00:00 22 3 Sur 8 Oeste 0 936.6 -1.8 24
2020-03-10 14:00:00 19.7 2 Nordeste 16 Oeste 0 937.3 -1 27
2020-03-10 13:00:00 17.7 6 Oeste 13 Oeste 0 938.1 -0.3 29
2020-03-10 12:00:00 16.2 6 Oeste 19 Noroeste 0 938.4 0.7 28
2020-03-10 11:00:00 13.4 9 Noroeste 22 Noroeste 0 938.3 1.1 35
2020-03-10 10:00:00 11.4 10 Noroeste 17 Norte 0 938.4 1.2 41
2020-03-10 09:00:00 9.1 17 Norte 28 Norte 0 937.7 0.7 49
2020-03-10 08:00:00 7.6 18 Norte 25 Noroeste 0 937.2 0.6 55
2020-03-10 07:00:00 7.2 17 Noroeste 34 Noroeste 0 937.2 1.4 55
2020-03-10 06:00:00 7.9 22 Noroeste 33 Noroeste 0 937 1.4 52
2020-03-10 05:00:00 7.2 12 Noroeste 27 Noroeste 0 936.6 0.1 53
2020-03-10 04:00:00 7.6 24 Noroeste 45 Norte 0 935.8 -0.6 52
2020-03-10 03:00:00 7.4 26 Noroeste 40 Noroeste 0 935.6 -1 55
2020-03-10 02:00:00 7.4 14 Norte 31 Noroeste 0 936.5 -0.3 57
2020-03-10 01:00:00 7.9 21 Noroeste 26 Noroeste 0 936.4 0.8 56
2020-03-10 00:00:00 8.5 17 Noroeste 30 Norte 0 936.6 1.3 54
2020-03-09 23:00:00 10 21 Norte 27 Norte 0 936.8 2.1 48
2020-03-09 22:00:00 11.7 23 Noroeste 30 Noroeste 0 935.6 1.4 39
2020-03-09 21:00:00 12.2 16 Oeste 26 Noroeste 0 935.3 1.7 37
2020-03-09 20:00:00 13.3 16 Noroeste 33 Noroeste 0 934.7 1.1 34
2020-03-09 19:00:00 15.6 26 Noroeste 33 Noroeste 0 934.2 0.9 30
2020-03-09 18:00:00 18.6 14 Norte 26 Norte 0 933.6 -0.2 24
2020-03-09 17:00:00 20 16 Norte 33 Norte 0 933.6 -1.2 20
2020-03-09 16:00:00 19.9 13 Norte 37 Oeste 0 933.3 -2.3 21
2020-03-09 15:00:00 18.5 21 Oeste 34 Noroeste 0 933.8 -2.3 21
2020-03-09 14:00:00 17.8 13 Norte 28 Norte 0 934.8 -1.1 26
2020-03-09 13:00:00 16.4 17 Norte 34 Noroeste 0 935.6 0 30
2020-03-09 12:00:00 14.1 25 Norte 39 Norte 0 936.1 0.6 37
2020-03-09 11:00:00 12.2 23 Norte 34 Norte 0 935.9 0.7 41
2020-03-09 10:00:00 10.3 21 Noroeste 35 Noroeste 0 935.6 0.6 46
2020-03-09 09:00:00 7.6 15 Noroeste 21 Noroeste 0 935.5 0.5 68
2020-03-09 08:00:00 5.1 10 Norte 23 Noroeste 0 935.2 0.8 74
2020-03-09 07:00:00 5.5 13 Oeste 17 Oeste 0 935 0.6 70
2020-03-09 06:00:00 5.1 13 Oeste 18 Oeste 0 935 0.4 74
2020-03-09 05:00:00 6.1 12 Noroeste 20 Noroeste 0 934.4 -0.5 67
2020-03-09 04:00:00 7.5 17 Noroeste 25 Noroeste 0 934.4 -0.8 63
2020-03-09 03:00:00 8.4 13 Noroeste 19 Noroeste 0 934.6 -0.3 59
2020-03-09 02:00:00 8.2 12 Noroeste 23 Noroeste 0 934.9 -0.1 59
2020-03-09 01:00:00 10.7 16 Noroeste 27 Noroeste 0 935.2 0.2 49
2020-03-09 00:00:00 11.6 17 Noroeste 28 Noroeste 0 934.9 0.1 45
2020-03-08 23:00:00 12 13 Noroeste 27 Noroeste 0 935 0.6 39
2020-03-08 22:00:00 13.3 15 Noroeste 31 Noroeste 0 935 0.9 34
2020-03-08 21:00:00 13.8 16 Noroeste 24 Noroeste 0 934.8 1.3 31
2020-03-08 20:00:00 15.1 19 Oeste 34 Oeste 0 934.4 0.8 25
2020-03-08 19:00:00 16.2 28 Oeste 45 Oeste 0 934.1 0.2 21
2020-03-08 18:00:00 18.5 30 Oeste 40 Oeste 0 933.5 -0.6 20
2020-03-08 17:00:00 19.7 24 Oeste 36 Oeste 0 933.6 -1.4 19
2020-03-08 16:00:00 20.3 21 Oeste 35 Oeste 0 933.9 -2.2 21
2020-03-08 15:00:00 19.4 19 Noroeste 36 Noroeste 0 934.1 -2.6 18
2020-03-08 14:00:00 19.1 20 Oeste 32 Oeste 0 935 -1.7 21
2020-03-08 13:00:00 17.7 20 Oeste 33 Noroeste 0 936.1 -0.7 25
2020-03-08 12:00:00 15.1 16 Noroeste 29 Noroeste 0 936.7 0.3 32
2020-03-08 11:00:00 11.1 11 Este 17 Sudeste 0 936.7 1.1 53
2020-03-08 10:00:00 7.6 9 Sudeste 14 Sudeste 0 936.8 1.1 65
2020-03-08 09:00:00 4.1 8 Sudeste 12 Sur 0 936.4 0.9 76
2020-03-08 08:00:00 0.5 3 Oeste 13 Norte 0 935.6 0 84
2020-03-08 07:00:00 2.6 7 Noroeste 19 Norte 0 935.7 -0.4 79
2020-03-08 06:00:00 2.9 10 Noroeste 19 Noroeste 0 935.5 -0.8 80
2020-03-08 05:00:00 3.3 14 Norte 16 Norte 0 935.6 -1.2 80
2020-03-08 04:00:00 3.4 10 Norte 19 Noroeste 0 936.1 -0.6 80
2020-03-08 03:00:00 4.9 19 Noroeste 22 Noroeste 0 936.3 -0.5 74
2020-03-08 02:00:00 3.8 16 Noroeste 20 Noroeste 0 936.8 -0.1 75
2020-03-08 01:00:00 5.9 11 Noroeste 16 Noroeste 0 936.7 0.4 68
2020-03-08 00:00:00 6.7 12 Noroeste 14 Noroeste 0 936.8 1.1 62
2020-03-07 23:00:00 7.8 6 Oeste 15 Norte 0 936.9 1.6 57
2020-03-07 22:00:00 9 11 Norte 28 Norte 0 936.3 1.9 53
2020-03-07 21:00:00 10.5 15 Noroeste 49 Norte 0 935.7 2.1 47
2020-03-07 20:00:00 11.6 24 Norte 35 Norte 0 935.3 1.9 44
2020-03-07 19:00:00 12.8 24 Norte 49 Norte 0 934.4 1.5 38
2020-03-07 18:00:00 15.3 35 Norte 50 Norte 0 933.6 0.6 31
2020-03-07 17:00:00 16.2 33 Norte 64 Norte 0 933.4 -0.2 30
2020-03-07 16:00:00 15.7 44 Norte 59 Norte 0 932.9 -2.1 30
2020-03-07 15:00:00 15.9 41 Norte 62 Norte 0 933 -2.9 30
2020-03-07 14:00:00 14.3 43 Norte 59 Norte 0 933.6 -2.5 32
2020-03-07 13:00:00 11 18 Noroeste 32 Noroeste 0 935 -1.1 45
2020-03-07 12:00:00 8.6 19 Oeste 27 Oeste 0 935.9 -0.1 50
2020-03-07 11:00:00 6.5 14 Oeste 31 Noroeste 0 936.1 1.1 57
2020-03-07 10:00:00 3.9 19 Oeste 30 Oeste 0 936.1 1.4 62
2020-03-07 09:00:00 3 6 Sudoeste 25 Oeste 0 936 1.9 64
2020-03-07 08:00:00 2.4 11 Noroeste 21 Oeste 0 935 1.3 66
2020-03-07 07:00:00 2.1 4 Nordeste 14 Oeste 0 934.7 1 66
2020-03-07 06:00:00 2.6 6 Este 30 Oeste 0 934.1 0.2 65
2020-03-07 05:00:00 3.9 22 Oeste 33 Oeste 0 933.7 0.1 58
2020-03-07 04:00:00 3.6 22 Oeste 31 Oeste 0 933.7 0.3 59
2020-03-07 03:00:00 3.6 17 Oeste 22 Oeste 0 933.9 0.8 59
2020-03-07 02:00:00 3.4 14 Oeste 24 Noroeste 0 933.6 0.9 57
2020-03-07 01:00:00 4.2 12 Noroeste 23 Noroeste 0 933.4 1.5 51
2020-03-07 00:00:00 5.6 13 Noroeste 45 Noroeste 0 933.1 1.9 45
2020-03-06 23:00:00 6.5 24 Noroeste 43 Noroeste 0 932.7 1.9 39
2020-03-06 22:00:00 6.5 26 Noroeste 37 Noroeste 0 931.9 2.2 39
2020-03-06 21:00:00 7.4 26 Noroeste 45 Noroeste 0 931.2 2.5 35
2020-03-06 20:00:00 7.9 24 Noroeste 36 Noroeste 0 930.8 3.2 35
2020-03-06 19:00:00 9.2 21 Noroeste 48 Noroeste 0 929.7 2.6 32
2020-03-06 18:00:00 10 30 Noroeste 55 Noroeste 0 928.7 2 29
2020-03-06 17:00:00 10.8 41 Noroeste 68 Noroeste 0 927.6 0.9 32
2020-03-06 16:00:00 11.1 46 Noroeste 76 Noroeste 0 927.1 -0.1 32
2020-03-06 15:00:00 11.2 45 Noroeste 67 Noroeste 0 926.7 -0.2 30
2020-03-06 14:00:00 10.6 46 Noroeste 63 Noroeste 0 926.7 -0.1 31
2020-03-06 13:00:00 11.5 45 Noroeste 69 Noroeste 0 927.2 0.2 31
2020-03-06 12:00:00 10.2 39 Noroeste 71 Noroeste 0 926.9 0.3 40
2020-03-06 11:00:00 8.3 39 Noroeste 58 Noroeste 0 926.8 0.4 51
2020-03-06 10:00:00 6.8 33 Noroeste 48 Oeste 0 927 0.4 64
2020-03-06 09:00:00 5.2 20 Oeste 35 Oeste 0 926.6 0.6 74
2020-03-06 08:00:00 4.2 7 Sudoeste 26 Oeste 0 926.4 0.4 75
2020-03-06 07:00:00 5 12 Noroeste 49 Oeste 0 926.6 0.6 68
2020-03-06 06:00:00 5.7 28 Oeste 45 Oeste 0 926 0.1 70
2020-03-06 05:00:00 6.2 26 Oeste 41 Oeste 0 926 -0.1 67
2020-03-06 04:00:00 5.7 19 Oeste 44 Oeste 0 926 -0.1 74
2020-03-06 03:00:00 6.5 21 Oeste 35 Oeste 0 925.9 -0.3 71
2020-03-06 02:00:00 7.8 22 Oeste 36 Oeste 0 926.1 -0.2 66
2020-03-06 01:00:00 8.3 21 Oeste 33 Oeste 0 926.1 0.3 68
2020-03-06 00:00:00 8 13 Oeste 24 Oeste 0 926.2 1 69
2020-03-05 23:00:00 9.1 13 Oeste 25 Noroeste 0 926.3 1.5 61
2020-03-05 22:00:00 8.6 11 Sudoeste 28 Noroeste 0 925.8 2.3 56
2020-03-05 21:00:00 10.5 20 Noroeste 40 Noroeste 0 925.2 2.7 46
2020-03-05 20:00:00 11.4 20 Noroeste 54 Noroeste 0 924.8 2.2 44
2020-03-05 19:00:00 12.8 35 Noroeste 60 Oeste 0 923.5 0.7 39
2020-03-05 18:00:00 13.7 38 Noroeste 70 Noroeste 0 922.5 -0.3 47
2020-03-05 17:00:00 12.8 40 Oeste 69 Noroeste 0.4 922.6 -1.3 65
2020-03-05 16:00:00 15.3 42 Oeste 75 Oeste 0 922.8 -2.2 56
2020-03-05 15:00:00 15.1 47 Oeste 71 Oeste 0 922.8 -2.4 58
2020-03-05 14:00:00 13.4 39 Oeste 57 Oeste 0 923.9 -1.6 65
2020-03-05 13:00:00 13.1 37 Oeste 58 Oeste 0 925 -1 65
2020-03-05 12:00:00 12.5 37 Oeste 54 Oeste 0 925.2 -0.8 65
2020-03-05 11:00:00 12.6 36 Oeste 57 Oeste 0 925.5 -0.7 68
2020-03-05 10:00:00 10.4 23 Oeste 33 Oeste 0 926 -0.8 77
2020-03-05 09:00:00 9.7 8 Noroeste 19 Norte 0 926 -1.4 81
2020-03-05 08:00:00 8.8 10 Sudoeste 24 Oeste 0 926.2 -1.3 84
2020-03-05 07:00:00 9.4 15 Oeste 30 Oeste 0 926.8 -1.3 82
2020-03-05 06:00:00 9.8 18 Oeste 38 Oeste 0 927.4 -2 80
2020-03-05 05:00:00 9.4 26 Oeste 37 Oeste 0 927.5 -2.5 81
2020-03-05 04:00:00 9.4 15 Oeste 25 Noroeste 0 928.1 -2.4 80
2020-03-05 03:00:00 9.4 11 Noroeste 21 Noroeste 0 929.4 -1.5 81
2020-03-05 02:00:00 8.4 4 Norte 10 Oeste 0 930 -1.3 82
2020-03-05 01:00:00 9.4 8 Oeste 18 Oeste 0 930.5 -1 78
2020-03-05 00:00:00 10 11 Noroeste 31 Oeste 0 930.9 -0.4 75
2020-03-04 23:00:00 10.7 19 Oeste 30 Oeste 0 931.3 0.2 72
2020-03-04 22:00:00 10.9 15 Oeste 28 Oeste 0 931.5 0.4 69
2020-03-04 21:00:00 12.1 20 Oeste 31 Oeste 0 931.3 0.5 61
2020-03-04 20:00:00 12.8 20 Oeste 31 Oeste 0 931.1 0.4 60
2020-03-04 19:00:00 14.8 19 Oeste 35 Oeste 0 931.1 0.5 54
2020-03-04 18:00:00 16.4 19 Oeste 32 Oeste 0 930.8 -0.5 46
2020-03-04 17:00:00 17.6 23 Oeste 40 Noroeste 0 930.7 -1.3 42
2020-03-04 16:00:00 17.6 26 Oeste 45 Noroeste 0 930.6 -1.8 45
2020-03-04 15:00:00 17.5 28 Oeste 44 Oeste 0 931.3 -1 46
2020-03-04 14:00:00 15.8 24 Noroeste 43 Oeste 0 932 -0.7 56
2020-03-04 13:00:00 15.4 25 Oeste 46 Noroeste 0 932.4 -0.4 64
2020-03-04 12:00:00 14.9 27 Noroeste 48 Noroeste 0 932.3 -0.3 65
2020-03-04 11:00:00 13.5 23 Noroeste 41 Oeste 0 932.7 0.7 73
2020-03-04 10:00:00 12.7 18 Oeste 31 Oeste 0 932.8 1.2 77
2020-03-04 09:00:00 11.8 20 Oeste 37 Oeste 0 932.6 1.6 80
2020-03-04 08:00:00 11.7 23 Oeste 40 Oeste 0 932 1.3 80
2020-03-04 07:00:00 11.7 17 Oeste 44 Noroeste 0 931.6 0.8 80
2020-03-04 06:00:00 12 27 Noroeste 46 Oeste 0 931 0 78
2020-03-04 05:00:00 12.5 27 Noroeste 45 Noroeste 0 930.7 -0.4 75
2020-03-04 04:00:00 12.7 23 Noroeste 38 Oeste 0 930.8 -0.2 75
2020-03-04 03:00:00 12.3 22 Noroeste 38 Oeste 0 931 0.1 76
2020-03-04 02:00:00 12 23 Oeste 40 Oeste 0 931.1 0.4 76
2020-03-04 01:00:00 11.8 23 Oeste 43 Oeste 0 931 0.4 77
2020-03-04 00:00:00 11.1 28 Oeste 46 Oeste 0 930.9 0.5 81
2020-03-03 23:00:00 11.1 32 Oeste 44 Oeste 0 930.7 0.9 81
2020-03-03 22:00:00 11.2 34 Oeste 44 Oeste 0 930.6 2 79
2020-03-03 21:00:00 11.5 28 Oeste 44 Oeste 0 930.4 2.3 77
2020-03-03 20:00:00 11.5 23 Oeste 43 Oeste 0 929.8 2 76
2020-03-03 19:00:00 11.7 32 Oeste 50 Oeste 0 928.6 1 73
2020-03-03 18:00:00 11.6 26 Sudoeste 37 Sudoeste 0 928.1 0.4 73
2020-03-03 17:00:00 11.9 19 Sudoeste 39 Oeste 0 927.8 -0.3 70
2020-03-03 16:00:00 11.5 30 Oeste 48 Oeste 0 927.6 -1.4 68
2020-03-03 15:00:00 9.8 33 Oeste 60 Oeste 0 927.7 -1.6 74
2020-03-03 14:00:00 9.7 40 Oeste 58 Oeste 0 928.1 -1.2 70
2020-03-03 13:00:00 8.5 37 Oeste 57 Oeste 0 929 -0.6 72
2020-03-03 12:00:00 7.1 28 Oeste 43 Oeste 0 929.3 -0.1 75
2020-03-03 11:00:00 6.4 21 Oeste 34 Sudoeste 0 929.3 0.2 73
2020-03-03 10:00:00 6 17 Oeste 24 Oeste 0 929.6 0.8 70
2020-03-03 09:00:00 4.4 6 Sudoeste 28 Noroeste 0 929.4 0.3 73
2020-03-03 08:00:00 4 15 Oeste 26 Oeste 0 929.1 0.1 72
2020-03-03 07:00:00 3.8 19 Noroeste 36 Noroeste 0 928.8 0 72
2020-03-03 06:00:00 4.4 19 Noroeste 35 Noroeste 0 929.1 -0.7 68
2020-03-03 05:00:00 4.3 24 Noroeste 40 Noroeste 0 929 -1.1 68
2020-03-03 04:00:00 4.8 27 Noroeste 44 Noroeste 0 928.8 -1 65
2020-03-03 03:00:00 4.9 22 Oeste 38 Noroeste 0 929.8 0.3 60
2020-03-03 02:00:00 5 25 Noroeste 42 Noroeste 0 930.1 1.2 60
2020-03-03 01:00:00 4.7 24 Noroeste 45 Noroeste 0 929.8 1.7 60
2020-03-03 00:00:00 5.3 26 Noroeste 45 Noroeste 0 929.5 2.3 54
2020-03-02 23:00:00 4.4 14 Noroeste 32 Noroeste 0 928.9 3 61
2020-03-02 22:00:00 5.6 21 Noroeste 30 Noroeste 0 928.1 3.5 54
2020-03-02 21:00:00 6.1 17 Noroeste 39 Noroeste 0 927.2 4 53
2020-03-02 20:00:00 5.9 19 Noroeste 51 Noroeste 0 925.9 4.4 61
2020-03-02 19:00:00 7.2 30 Noroeste 72 Noroeste 0 924.6 4 55
2020-03-02 18:00:00 6.9 45 Noroeste 99 Noroeste 0 923.2 3.1 58
2020-03-02 17:00:00 9.5 49 Noroeste 73 Noroeste 1.2 921.5 1.6 52
2020-03-02 16:00:00 8.9 32 Oeste 53 Noroeste 0.4 920.6 0.8 65
2020-03-02 15:00:00 7.5 37 Noroeste 78 Oeste 0.8 920.1 0.5 74
2020-03-02 14:00:00 10 47 Oeste 69 Oeste 0 919.9 1.4 63
2020-03-02 13:00:00 10.9 40 Oeste 67 Noroeste 0 919.8 2.5 53
2020-03-02 12:00:00 9.3 46 Oeste 100 Noroeste 2.2 919.6 2.9 72
2020-03-02 11:00:00 12.4 55 Oeste 95 Oeste 0 918.5 2 62
2020-03-02 10:00:00 11 49 Oeste 76 Oeste 0.8 917.3 -0.2 82
2020-03-02 09:00:00 11 47 Oeste 70 Sudoeste 0.2 916.7 -1.2 79
2020-03-02 08:00:00 10.9 44 Oeste 73 Oeste 0 916.5 -2.2 76
2020-03-02 07:00:00 10.5 38 Oeste 67 Sudoeste 0 917.5 -1.5 80
2020-03-02 06:00:00 9.9 40 Oeste 71 Oeste 0.6 917.9 -1.6 85
2020-03-02 05:00:00 10.4 48 Oeste 81 Oeste 0.2 918.7 -2.3 81
2020-03-02 04:00:00 12.2 55 Oeste 82 Oeste 0 919 -2.9 71
2020-03-02 03:00:00 11.5 48 Oeste 75 Oeste 0 919.5 -3.8 78
2020-03-02 02:00:00 11.1 39 Oeste 64 Oeste 0 921 -3.7 76
2020-03-02 01:00:00 10.6 35 Oeste 54 Oeste 0 921.9 -3.6 75
2020-03-02 00:00:00 10.3 25 Sudoeste 42 Oeste 0 923.3 -2.4 73